sensor_id;sensor_type;location;lat;lon;timestamp;P1;durP1;ratioP1;P2;durP2;ratioP2
15071;SDS011;7635;56.696;13.002;2022-07-15T00:02:26;8.10;;;1.50;;
15071;SDS011;7635;56.696;13.002;2022-07-15T00:04:53;3.47;;;1.10;;
15071;SDS011;7635;56.696;13.002;2022-07-15T00:07:19;4.78;;;1.40;;
15071;SDS011;7635;56.696;13.002;2022-07-15T00:09:46;4.13;;;1.67;;
15071;SDS011;7635;56.696;13.002;2022-07-15T00:12:32;4.93;;;1.50;;
15071;SDS011;7635;56.696;13.002;2022-07-15T00:14:59;4.55;;;1.40;;
15071;SDS011;7635;56.696;13.002;2022-07-15T00:17:27;5.82;;;1.60;;
15071;SDS011;7635;56.696;13.002;2022-07-15T00:19:53;6.10;;;1.40;;
15071;SDS011;7635;56.696;13.002;2022-07-15T00:22:20;7.78;;;1.45;;
15071;SDS011;7635;56.696;13.002;2022-07-15T00:24:47;2.38;;;1.13;;
15071;SDS011;7635;56.696;13.002;2022-07-15T00:27:14;4.20;;;1.40;;
15071;SDS011;7635;56.696;13.002;2022-07-15T00:29:43;3.95;;;1.17;;
15071;SDS011;7635;56.696;13.002;2022-07-15T00:32:10;5.35;;;1.45;;
15071;SDS011;7635;56.696;13.002;2022-07-15T00:34:37;4.80;;;1.60;;
15071;SDS011;7635;56.696;13.002;2022-07-15T00:37:04;6.35;;;1.45;;
15071;SDS011;7635;56.696;13.002;2022-07-15T00:39:31;2.33;;;1.48;;
15071;SDS011;7635;56.696;13.002;2022-07-15T00:41:58;5.85;;;1.58;;
15071;SDS011;7635;56.696;13.002;2022-07-15T00:44:25;1.25;;;0.95;;
15071;SDS011;7635;56.696;13.002;2022-07-15T00:46:53;11.05;;;1.55;;
15071;SDS011;7635;56.696;13.002;2022-07-15T00:49:21;4.70;;;1.50;;
15071;SDS011;7635;56.696;13.002;2022-07-15T00:51:50;3.67;;;1.50;;
15071;SDS011;7635;56.696;13.002;2022-07-15T00:54:23;4.63;;;1.50;;
15071;SDS011;7635;56.696;13.002;2022-07-15T00:56:52;4.03;;;1.25;;
15071;SDS011;7635;56.696;13.002;2022-07-15T00:59:21;4.07;;;1.40;;
15071;SDS011;7635;56.696;13.002;2022-07-15T01:01:49;5.53;;;1.10;;
15071;SDS011;7635;56.696;13.002;2022-07-15T01:04:19;3.45;;;1.20;;
15071;SDS011;7635;56.696;13.002;2022-07-15T01:06:47;3.05;;;1.20;;
15071;SDS011;7635;56.696;13.002;2022-07-15T01:09:14;3.45;;;1.50;;
15071;SDS011;7635;56.696;13.002;2022-07-15T01:11:44;4.70;;;1.08;;
15071;SDS011;7635;56.696;13.002;2022-07-15T01:14:11;6.13;;;1.60;;
15071;SDS011;7635;56.696;13.002;2022-07-15T01:16:37;3.67;;;1.45;;
15071;SDS011;7635;56.696;13.002;2022-07-15T01:19:06;2.78;;;1.38;;
15071;SDS011;7635;56.696;13.002;2022-07-15T01:21:34;4.13;;;1.67;;
15071;SDS011;7635;56.696;13.002;2022-07-15T01:24:01;3.97;;;1.23;;
15071;SDS011;7635;56.696;13.002;2022-07-15T01:26:27;5.93;;;1.45;;
15071;SDS011;7635;56.696;13.002;2022-07-15T01:28:54;4.57;;;1.80;;
15071;SDS011;7635;56.696;13.002;2022-07-15T01:31:21;3.83;;;1.55;;
15071;SDS011;7635;56.696;13.002;2022-07-15T01:33:48;3.45;;;1.38;;
15071;SDS011;7635;56.696;13.002;2022-07-15T01:36:14;2.65;;;1.13;;
15071;SDS011;7635;56.696;13.002;2022-07-15T01:38:42;4.03;;;1.25;;
15071;SDS011;7635;56.696;13.002;2022-07-15T01:41:09;2.75;;;1.55;;
15071;SDS011;7635;56.696;13.002;2022-07-15T01:43:38;3.33;;;1.17;;
15071;SDS011;7635;56.696;13.002;2022-07-15T01:46:05;6.63;;;1.48;;
15071;SDS011;7635;56.696;13.002;2022-07-15T01:48:32;2.20;;;1.23;;
15071;SDS011;7635;56.696;13.002;2022-07-15T01:51:16;3.45;;;1.17;;
15071;SDS011;7635;56.696;13.002;2022-07-15T01:53:44;5.03;;;1.20;;
15071;SDS011;7635;56.696;13.002;2022-07-15T01:56:11;3.83;;;1.42;;
15071;SDS011;7635;56.696;13.002;2022-07-15T01:58:38;1.85;;;1.20;;
15071;SDS011;7635;56.696;13.002;2022-07-15T02:01:05;4.13;;;1.27;;
15071;SDS011;7635;56.696;13.002;2022-07-15T02:03:32;2.30;;;1.08;;
15071;SDS011;7635;56.696;13.002;2022-07-15T02:05:59;3.83;;;1.50;;
15071;SDS011;7635;56.696;13.002;2022-07-15T02:08:26;4.28;;;1.77;;
15071;SDS011;7635;56.696;13.002;2022-07-15T02:10:54;2.03;;;1.23;;
15071;SDS011;7635;56.696;13.002;2022-07-15T02:13:21;0.98;;;0.98;;
15071;SDS011;7635;56.696;13.002;2022-07-15T02:15:48;2.80;;;0.93;;
15071;SDS011;7635;56.696;13.002;2022-07-15T02:18:14;2.85;;;1.20;;
15071;SDS011;7635;56.696;13.002;2022-07-15T02:20:41;5.70;;;1.58;;
15071;SDS011;7635;56.696;13.002;2022-07-15T02:23:08;3.65;;;1.27;;
15071;SDS011;7635;56.696;13.002;2022-07-15T02:25:35;1.80;;;1.20;;
15071;SDS011;7635;56.696;13.002;2022-07-15T02:28:03;2.40;;;1.25;;
15071;SDS011;7635;56.696;13.002;2022-07-15T02:30:32;2.08;;;1.20;;
15071;SDS011;7635;56.696;13.002;2022-07-15T02:33:01;4.63;;;1.30;;
15071;SDS011;7635;56.696;13.002;2022-07-15T02:35:29;2.67;;;1.40;;
15071;SDS011;7635;56.696;13.002;2022-07-15T02:37:56;4.15;;;1.10;;
15071;SDS011;7635;56.696;13.002;2022-07-15T02:40:24;2.78;;;1.25;;
15071;SDS011;7635;56.696;13.002;2022-07-15T02:42:52;6.93;;;1.42;;
15071;SDS011;7635;56.696;13.002;2022-07-15T02:45:22;3.72;;;1.20;;
15071;SDS011;7635;56.696;13.002;2022-07-15T02:47:50;2.30;;;0.82;;
15071;SDS011;7635;56.696;13.002;2022-07-15T02:50:17;1.50;;;1.10;;
15071;SDS011;7635;56.696;13.002;2022-07-15T02:52:45;3.50;;;1.17;;
15071;SDS011;7635;56.696;13.002;2022-07-15T02:55:12;3.58;;;1.50;;
15071;SDS011;7635;56.696;13.002;2022-07-15T02:57:39;3.58;;;1.17;;
15071;SDS011;7635;56.696;13.002;2022-07-15T03:00:08;5.30;;;1.15;;
15071;SDS011;7635;56.696;13.002;2022-07-15T03:02:38;2.70;;;1.30;;
15071;SDS011;7635;56.696;13.002;2022-07-15T03:05:06;4.50;;;1.10;;
15071;SDS011;7635;56.696;13.002;2022-07-15T03:07:33;3.97;;;1.20;;
15071;SDS011;7635;56.696;13.002;2022-07-15T03:10:00;1.77;;;1.00;;
15071;SDS011;7635;56.696;13.002;2022-07-15T03:12:27;2.85;;;1.27;;
15071;SDS011;7635;56.696;13.002;2022-07-15T03:14:54;1.85;;;1.15;;
15071;SDS011;7635;56.696;13.002;2022-07-15T03:17:21;3.22;;;1.10;;
15071;SDS011;7635;56.696;13.002;2022-07-15T03:19:49;2.15;;;1.20;;
15071;SDS011;7635;56.696;13.002;2022-07-15T03:22:16;1.67;;;1.15;;
15071;SDS011;7635;56.696;13.002;2022-07-15T03:24:42;5.70;;;1.17;;
15071;SDS011;7635;56.696;13.002;2022-07-15T03:27:09;3.40;;;1.10;;
15071;SDS011;7635;56.696;13.002;2022-07-15T03:29:36;1.30;;;1.20;;
15071;SDS011;7635;56.696;13.002;2022-07-15T03:32:04;1.60;;;1.13;;
15071;SDS011;7635;56.696;13.002;2022-07-15T03:34:31;0.93;;;0.93;;
15071;SDS011;7635;56.696;13.002;2022-07-15T03:36:59;2.53;;;1.13;;
15071;SDS011;7635;56.696;13.002;2022-07-15T03:39:26;3.70;;;1.25;;
15071;SDS011;7635;56.696;13.002;2022-07-15T03:41:59;2.95;;;1.15;;
15071;SDS011;7635;56.696;13.002;2022-07-15T03:44:29;5.68;;;1.50;;
15071;SDS011;7635;56.696;13.002;2022-07-15T03:46:56;4.45;;;1.10;;
15071;SDS011;7635;56.696;13.002;2022-07-15T03:49:23;2.05;;;1.10;;
15071;SDS011;7635;56.696;13.002;2022-07-15T03:51:49;2.97;;;1.20;;
15071;SDS011;7635;56.696;13.002;2022-07-15T03:54:17;1.67;;;1.00;;
15071;SDS011;7635;56.696;13.002;2022-07-15T03:56:44;3.58;;;1.38;;
15071;SDS011;7635;56.696;13.002;2022-07-15T03:59:12;4.85;;;1.10;;
15071;SDS011;7635;56.696;13.002;2022-07-15T04:01:39;2.25;;;1.02;;
15071;SDS011;7635;56.696;13.002;2022-07-15T04:04:06;1.70;;;0.98;;
15071;SDS011;7635;56.696;13.002;2022-07-15T04:06:34;1.42;;;1.15;;
15071;SDS011;7635;56.696;13.002;2022-07-15T04:09:01;2.05;;;1.00;;
15071;SDS011;7635;56.696;13.002;2022-07-15T04:11:29;1.15;;;1.05;;
15071;SDS011;7635;56.696;13.002;2022-07-15T04:13:56;5.93;;;1.33;;
15071;SDS011;7635;56.696;13.002;2022-07-15T04:16:23;4.40;;;1.17;;
15071;SDS011;7635;56.696;13.002;2022-07-15T04:18:50;4.07;;;1.60;;
15071;SDS011;7635;56.696;13.002;2022-07-15T04:21:17;1.95;;;0.93;;
15071;SDS011;7635;56.696;13.002;2022-07-15T04:23:44;5.65;;;1.30;;
15071;SDS011;7635;56.696;13.002;2022-07-15T04:26:11;1.38;;;1.00;;
15071;SDS011;7635;56.696;13.002;2022-07-15T04:28:39;2.45;;;1.33;;
15071;SDS011;7635;56.696;13.002;2022-07-15T04:31:06;6.60;;;1.48;;
15071;SDS011;7635;56.696;13.002;2022-07-15T04:33:32;2.08;;;1.05;;
15071;SDS011;7635;56.696;13.002;2022-07-15T04:36:03;2.42;;;1.00;;
15071;SDS011;7635;56.696;13.002;2022-07-15T04:38:33;1.10;;;1.00;;
15071;SDS011;7635;56.696;13.002;2022-07-15T04:40:59;3.15;;;0.90;;
15071;SDS011;7635;56.696;13.002;2022-07-15T04:43:26;1.70;;;0.90;;
15071;SDS011;7635;56.696;13.002;2022-07-15T04:46:04;5.63;;;1.27;;
15071;SDS011;7635;56.696;13.002;2022-07-15T04:48:31;4.55;;;1.00;;
15071;SDS011;7635;56.696;13.002;2022-07-15T04:51:15;2.63;;;0.98;;
15071;SDS011;7635;56.696;13.002;2022-07-15T04:53:42;2.00;;;0.98;;
15071;SDS011;7635;56.696;13.002;2022-07-15T04:56:09;1.63;;;1.20;;
15071;SDS011;7635;56.696;13.002;2022-07-15T04:58:36;2.05;;;1.25;;
15071;SDS011;7635;56.696;13.002;2022-07-15T05:01:04;1.67;;;0.85;;
15071;SDS011;7635;56.696;13.002;2022-07-15T05:03:37;1.35;;;0.98;;
15071;SDS011;7635;56.696;13.002;2022-07-15T05:06:04;3.60;;;0.95;;
15071;SDS011;7635;56.696;13.002;2022-07-15T05:08:34;0.80;;;0.80;;
15071;SDS011;7635;56.696;13.002;2022-07-15T05:11:01;3.40;;;0.75;;
15071;SDS011;7635;56.696;13.002;2022-07-15T05:13:28;1.33;;;1.05;;
15071;SDS011;7635;56.696;13.002;2022-07-15T05:15:54;1.65;;;0.82;;
15071;SDS011;7635;56.696;13.002;2022-07-15T05:18:31;2.13;;;1.00;;
15071;SDS011;7635;56.696;13.002;2022-07-15T05:20:58;0.80;;;0.80;;
15071;SDS011;7635;56.696;13.002;2022-07-15T05:23:26;2.40;;;0.93;;
15071;SDS011;7635;56.696;13.002;2022-07-15T05:25:58;1.02;;;0.77;;
15071;SDS011;7635;56.696;13.002;2022-07-15T05:28:26;2.25;;;0.80;;
15071;SDS011;7635;56.696;13.002;2022-07-15T05:30:53;0.88;;;0.68;;
15071;SDS011;7635;56.696;13.002;2022-07-15T05:33:20;1.73;;;1.25;;
15071;SDS011;7635;56.696;13.002;2022-07-15T05:35:48;0.88;;;0.60;;
15071;SDS011;7635;56.696;13.002;2022-07-15T05:38:29;0.90;;;0.70;;
15071;SDS011;7635;56.696;13.002;2022-07-15T05:40:56;0.70;;;0.70;;
15071;SDS011;7635;56.696;13.002;2022-07-15T05:43:23;0.70;;;0.70;;
15071;SDS011;7635;56.696;13.002;2022-07-15T05:45:50;0.88;;;0.70;;
15071;SDS011;7635;56.696;13.002;2022-07-15T05:48:17;1.45;;;0.95;;
15071;SDS011;7635;56.696;13.002;2022-07-15T05:50:43;0.73;;;0.73;;
15071;SDS011;7635;56.696;13.002;2022-07-15T05:53:20;0.95;;;0.73;;
15071;SDS011;7635;56.696;13.002;2022-07-15T05:55:47;0.82;;;0.70;;
15071;SDS011;7635;56.696;13.002;2022-07-15T05:58:14;0.55;;;0.55;;
15071;SDS011;7635;56.696;13.002;2022-07-15T06:00:41;0.73;;;0.60;;
15071;SDS011;7635;56.696;13.002;2022-07-15T06:03:08;2.17;;;0.70;;
15071;SDS011;7635;56.696;13.002;2022-07-15T06:05:35;0.47;;;0.47;;
15071;SDS011;7635;56.696;13.002;2022-07-15T06:08:03;0.75;;;0.70;;
15071;SDS011;7635;56.696;13.002;2022-07-15T06:10:30;0.82;;;0.60;;
15071;SDS011;7635;56.696;13.002;2022-07-15T06:12:56;0.60;;;0.52;;
15071;SDS011;7635;56.696;13.002;2022-07-15T06:15:23;0.60;;;0.60;;
15071;SDS011;7635;56.696;13.002;2022-07-15T06:17:50;0.68;;;0.68;;
15071;SDS011;7635;56.696;13.002;2022-07-15T06:20:19;0.60;;;0.60;;
15071;SDS011;7635;56.696;13.002;2022-07-15T06:22:46;0.40;;;0.40;;
15071;SDS011;7635;56.696;13.002;2022-07-15T06:25:14;0.40;;;0.40;;
15071;SDS011;7635;56.696;13.002;2022-07-15T06:27:41;0.82;;;0.60;;
15071;SDS011;7635;56.696;13.002;2022-07-15T06:30:09;0.40;;;0.40;;
15071;SDS011;7635;56.696;13.002;2022-07-15T06:32:36;1.02;;;0.60;;
15071;SDS011;7635;56.696;13.002;2022-07-15T06:35:03;0.88;;;0.88;;
15071;SDS011;7635;56.696;13.002;2022-07-15T06:37:30;0.85;;;0.68;;
15071;SDS011;7635;56.696;13.002;2022-07-15T06:39:58;0.70;;;0.70;;
15071;SDS011;7635;56.696;13.002;2022-07-15T06:42:26;0.60;;;0.60;;
15071;SDS011;7635;56.696;13.002;2022-07-15T06:44:56;0.75;;;0.63;;
15071;SDS011;7635;56.696;13.002;2022-07-15T06:47:22;0.88;;;0.52;;
15071;SDS011;7635;56.696;13.002;2022-07-15T06:49:49;0.50;;;0.50;;
15071;SDS011;7635;56.696;13.002;2022-07-15T06:52:18;0.60;;;0.60;;
15071;SDS011;7635;56.696;13.002;2022-07-15T06:54:45;0.65;;;0.65;;
15071;SDS011;7635;56.696;13.002;2022-07-15T06:57:12;0.88;;;0.55;;
15071;SDS011;7635;56.696;13.002;2022-07-15T06:59:43;0.73;;;0.55;;
15071;SDS011;7635;56.696;13.002;2022-07-15T07:02:09;1.30;;;1.00;;
15071;SDS011;7635;56.696;13.002;2022-07-15T07:04:36;0.75;;;0.55;;
15071;SDS011;7635;56.696;13.002;2022-07-15T07:07:07;0.50;;;0.47;;
15071;SDS011;7635;56.696;13.002;2022-07-15T07:09:34;0.40;;;0.40;;
15071;SDS011;7635;56.696;13.002;2022-07-15T07:12:00;1.35;;;0.60;;
15071;SDS011;7635;56.696;13.002;2022-07-15T07:14:27;1.90;;;0.60;;
15071;SDS011;7635;56.696;13.002;2022-07-15T07:16:55;0.60;;;0.60;;
15071;SDS011;7635;56.696;13.002;2022-07-15T07:19:24;0.65;;;0.55;;
15071;SDS011;7635;56.696;13.002;2022-07-15T07:21:51;1.95;;;0.57;;
15071;SDS011;7635;56.696;13.002;2022-07-15T07:24:18;0.60;;;0.60;;
15071;SDS011;7635;56.696;13.002;2022-07-15T07:26:45;0.43;;;0.43;;
15071;SDS011;7635;56.696;13.002;2022-07-15T07:29:11;1.83;;;0.70;;
15071;SDS011;7635;56.696;13.002;2022-07-15T07:31:41;1.13;;;1.00;;
15071;SDS011;7635;56.696;13.002;2022-07-15T07:34:10;0.95;;;0.80;;
15071;SDS011;7635;56.696;13.002;2022-07-15T07:36:36;0.43;;;0.43;;
15071;SDS011;7635;56.696;13.002;2022-07-15T07:39:03;0.70;;;0.70;;
15071;SDS011;7635;56.696;13.002;2022-07-15T07:41:30;0.50;;;0.50;;
15071;SDS011;7635;56.696;13.002;2022-07-15T07:43:57;1.00;;;0.90;;
15071;SDS011;7635;56.696;13.002;2022-07-15T07:46:24;2.42;;;0.68;;
15071;SDS011;7635;56.696;13.002;2022-07-15T07:48:58;1.90;;;0.60;;
15071;SDS011;7635;56.696;13.002;2022-07-15T07:51:26;1.63;;;0.77;;
15071;SDS011;7635;56.696;13.002;2022-07-15T07:53:54;0.60;;;0.60;;
15071;SDS011;7635;56.696;13.002;2022-07-15T07:56:21;0.93;;;0.80;;
15071;SDS011;7635;56.696;13.002;2022-07-15T07:58:48;0.52;;;0.50;;
15071;SDS011;7635;56.696;13.002;2022-07-15T08:01:15;0.60;;;0.60;;
15071;SDS011;7635;56.696;13.002;2022-07-15T08:03:42;0.60;;;0.60;;
15071;SDS011;7635;56.696;13.002;2022-07-15T08:06:10;0.65;;;0.55;;
15071;SDS011;7635;56.696;13.002;2022-07-15T08:08:38;0.60;;;0.60;;
15071;SDS011;7635;56.696;13.002;2022-07-15T08:11:05;0.50;;;0.50;;
15071;SDS011;7635;56.696;13.002;2022-07-15T08:13:32;0.80;;;0.80;;
15071;SDS011;7635;56.696;13.002;2022-07-15T08:16:00;0.45;;;0.45;;
15071;SDS011;7635;56.696;13.002;2022-07-15T08:18:26;0.63;;;0.63;;
15071;SDS011;7635;56.696;13.002;2022-07-15T08:20:53;0.30;;;0.30;;
15071;SDS011;7635;56.696;13.002;2022-07-15T08:23:20;0.57;;;0.57;;
15071;SDS011;7635;56.696;13.002;2022-07-15T08:25:49;0.50;;;0.50;;
15071;SDS011;7635;56.696;13.002;2022-07-15T08:28:17;0.60;;;0.60;;
15071;SDS011;7635;56.696;13.002;2022-07-15T08:30:44;1.77;;;0.60;;
15071;SDS011;7635;56.696;13.002;2022-07-15T08:33:13;1.05;;;0.57;;
15071;SDS011;7635;56.696;13.002;2022-07-15T08:35:41;0.50;;;0.50;;
15071;SDS011;7635;56.696;13.002;2022-07-15T08:38:09;0.52;;;0.52;;
15071;SDS011;7635;56.696;13.002;2022-07-15T08:40:45;1.45;;;0.80;;
15071;SDS011;7635;56.696;13.002;2022-07-15T08:43:13;0.60;;;0.60;;
15071;SDS011;7635;56.696;13.002;2022-07-15T08:45:40;0.60;;;0.60;;
15071;SDS011;7635;56.696;13.002;2022-07-15T08:48:08;1.35;;;0.80;;
15071;SDS011;7635;56.696;13.002;2022-07-15T08:50:36;0.50;;;0.50;;
15071;SDS011;7635;56.696;13.002;2022-07-15T08:53:03;0.47;;;0.47;;
15071;SDS011;7635;56.696;13.002;2022-07-15T08:55:30;1.20;;;0.60;;
15071;SDS011;7635;56.696;13.002;2022-07-15T08:57:58;0.75;;;0.75;;
15071;SDS011;7635;56.696;13.002;2022-07-15T09:00:26;0.80;;;0.80;;
15071;SDS011;7635;56.696;13.002;2022-07-15T09:02:55;0.60;;;0.60;;
15071;SDS011;7635;56.696;13.002;2022-07-15T09:05:27;0.55;;;0.55;;
15071;SDS011;7635;56.696;13.002;2022-07-15T09:07:59;0.70;;;0.70;;
15071;SDS011;7635;56.696;13.002;2022-07-15T09:13:25;0.52;;;0.52;;
15071;SDS011;7635;56.696;13.002;2022-07-15T09:15:57;0.25;;;0.25;;
15071;SDS011;7635;56.696;13.002;2022-07-15T09:18:25;0.77;;;0.73;;
15071;SDS011;7635;56.696;13.002;2022-07-15T09:20:54;0.50;;;0.50;;
15071;SDS011;7635;56.696;13.002;2022-07-15T09:23:22;0.65;;;0.65;;
15071;SDS011;7635;56.696;13.002;2022-07-15T09:25:55;0.80;;;0.70;;
15071;SDS011;7635;56.696;13.002;2022-07-15T09:28:34;0.40;;;0.40;;
15071;SDS011;7635;56.696;13.002;2022-07-15T09:31:06;0.60;;;0.60;;
15071;SDS011;7635;56.696;13.002;2022-07-15T09:33:51;0.65;;;0.65;;
15071;SDS011;7635;56.696;13.002;2022-07-15T09:36:26;0.70;;;0.70;;
15071;SDS011;7635;56.696;13.002;2022-07-15T09:38:55;0.80;;;0.80;;
15071;SDS011;7635;56.696;13.002;2022-07-15T09:41:24;2.05;;;0.80;;
15071;SDS011;7635;56.696;13.002;2022-07-15T09:43:54;0.80;;;0.80;;
15071;SDS011;7635;56.696;13.002;2022-07-15T09:46:25;1.20;;;0.63;;
15071;SDS011;7635;56.696;13.002;2022-07-15T09:48:53;0.85;;;0.85;;
15071;SDS011;7635;56.696;13.002;2022-07-15T09:51:21;1.67;;;0.70;;
15071;SDS011;7635;56.696;13.002;2022-07-15T09:53:49;0.60;;;0.60;;
15071;SDS011;7635;56.696;13.002;2022-07-15T09:56:19;0.63;;;0.63;;
15071;SDS011;7635;56.696;13.002;2022-07-15T09:58:51;0.95;;;0.85;;
15071;SDS011;7635;56.696;13.002;2022-07-15T10:01:18;0.93;;;0.68;;
15071;SDS011;7635;56.696;13.002;2022-07-15T10:03:46;1.02;;;0.50;;
15071;SDS011;7635;56.696;13.002;2022-07-15T10:06:15;0.88;;;0.88;;
15071;SDS011;7635;56.696;13.002;2022-07-15T10:08:45;2.08;;;0.98;;
15071;SDS011;7635;56.696;13.002;2022-07-15T10:11:13;1.52;;;0.55;;
15071;SDS011;7635;56.696;13.002;2022-07-15T10:19:49;1.63;;;0.70;;
15071;SDS011;7635;56.696;13.002;2022-07-15T10:22:40;0.60;;;0.60;;
15071;SDS011;7635;56.696;13.002;2022-07-15T10:25:20;0.40;;;0.40;;
15071;SDS011;7635;56.696;13.002;2022-07-15T10:27:58;0.63;;;0.63;;
15071;SDS011;7635;56.696;13.002;2022-07-15T10:30:30;0.50;;;0.50;;
15071;SDS011;7635;56.696;13.002;2022-07-15T10:33:08;0.68;;;0.68;;
15071;SDS011;7635;56.696;13.002;2022-07-15T10:35:41;1.45;;;0.57;;
15071;SDS011;7635;56.696;13.002;2022-07-15T10:38:26;0.70;;;0.70;;
15071;SDS011;7635;56.696;13.002;2022-07-15T10:41:01;0.60;;;0.60;;
15071;SDS011;7635;56.696;13.002;2022-07-15T10:46:20;0.50;;;0.50;;
15071;SDS011;7635;56.696;13.002;2022-07-15T10:48:49;0.60;;;0.60;;
15071;SDS011;7635;56.696;13.002;2022-07-15T10:54:37;1.63;;;0.73;;
15071;SDS011;7635;56.696;13.002;2022-07-15T10:57:09;1.00;;;0.77;;
15071;SDS011;7635;56.696;13.002;2022-07-15T10:59:38;0.40;;;0.40;;
15071;SDS011;7635;56.696;13.002;2022-07-15T11:02:16;0.93;;;0.65;;
15071;SDS011;7635;56.696;13.002;2022-07-15T11:04:45;0.60;;;0.60;;
15071;SDS011;7635;56.696;13.002;2022-07-15T11:07:20;1.17;;;0.50;;
15071;SDS011;7635;56.696;13.002;2022-07-15T11:09:51;1.13;;;0.75;;
15071;SDS011;7635;56.696;13.002;2022-07-15T11:12:20;0.50;;;0.50;;
15071;SDS011;7635;56.696;13.002;2022-07-15T11:14:50;0.35;;;0.35;;
15071;SDS011;7635;56.696;13.002;2022-07-15T11:17:20;0.60;;;0.60;;
15071;SDS011;7635;56.696;13.002;2022-07-15T11:19:50;0.55;;;0.55;;
15071;SDS011;7635;56.696;13.002;2022-07-15T11:22:21;0.65;;;0.63;;
15071;SDS011;7635;56.696;13.002;2022-07-15T11:24:49;0.50;;;0.50;;
15071;SDS011;7635;56.696;13.002;2022-07-15T11:27:17;0.80;;;0.80;;
15071;SDS011;7635;56.696;13.002;2022-07-15T11:29:46;0.63;;;0.63;;
15071;SDS011;7635;56.696;13.002;2022-07-15T11:32:15;1.90;;;0.82;;
15071;SDS011;7635;56.696;13.002;2022-07-15T11:34:43;0.50;;;0.50;;
15071;SDS011;7635;56.696;13.002;2022-07-15T11:37:11;0.98;;;0.63;;
15071;SDS011;7635;56.696;13.002;2022-07-15T11:39:45;0.88;;;0.88;;
15071;SDS011;7635;56.696;13.002;2022-07-15T11:42:19;1.85;;;0.90;;
15071;SDS011;7635;56.696;13.002;2022-07-15T11:45:05;0.80;;;0.80;;
15071;SDS011;7635;56.696;13.002;2022-07-15T11:47:32;0.98;;;0.75;;
15071;SDS011;7635;56.696;13.002;2022-07-15T11:50:00;1.70;;;0.77;;
15071;SDS011;7635;56.696;13.002;2022-07-15T11:52:27;0.80;;;0.77;;
15071;SDS011;7635;56.696;13.002;2022-07-15T11:54:55;2.47;;;1.10;;
15071;SDS011;7635;56.696;13.002;2022-07-15T11:57:22;1.52;;;0.90;;
15071;SDS011;7635;56.696;13.002;2022-07-15T11:59:50;0.95;;;0.85;;
15071;SDS011;7635;56.696;13.002;2022-07-15T12:02:18;1.27;;;0.85;;
15071;SDS011;7635;56.696;13.002;2022-07-15T12:04:48;3.20;;;1.00;;
15071;SDS011;7635;56.696;13.002;2022-07-15T12:07:15;1.20;;;0.73;;
15071;SDS011;7635;56.696;13.002;2022-07-15T12:09:42;0.73;;;0.73;;
15071;SDS011;7635;56.696;13.002;2022-07-15T12:12:11;1.40;;;1.13;;
15071;SDS011;7635;56.696;13.002;2022-07-15T12:14:39;1.35;;;1.08;;
15071;SDS011;7635;56.696;13.002;2022-07-15T12:17:07;4.03;;;1.20;;
15071;SDS011;7635;56.696;13.002;2022-07-15T12:19:34;2.20;;;1.20;;
15071;SDS011;7635;56.696;13.002;2022-07-15T12:22:04;1.27;;;0.90;;
15071;SDS011;7635;56.696;13.002;2022-07-15T12:24:36;2.85;;;1.20;;
15071;SDS011;7635;56.696;13.002;2022-07-15T12:27:05;1.95;;;1.00;;
15071;SDS011;7635;56.696;13.002;2022-07-15T12:29:34;2.25;;;0.90;;
15071;SDS011;7635;56.696;13.002;2022-07-15T12:32:03;1.90;;;1.13;;
15071;SDS011;7635;56.696;13.002;2022-07-15T12:34:50;1.02;;;0.82;;
15071;SDS011;7635;56.696;13.002;2022-07-15T12:37:19;2.30;;;0.77;;
15071;SDS011;7635;56.696;13.002;2022-07-15T12:39:54;1.17;;;0.95;;
15071;SDS011;7635;56.696;13.002;2022-07-15T12:42:23;1.75;;;1.00;;
15071;SDS011;7635;56.696;13.002;2022-07-15T12:45:09;1.52;;;1.10;;
15071;SDS011;7635;56.696;13.002;2022-07-15T12:47:37;0.82;;;0.82;;
15071;SDS011;7635;56.696;13.002;2022-07-15T12:50:21;1.73;;;1.20;;
15071;SDS011;7635;56.696;13.002;2022-07-15T12:52:48;2.45;;;1.20;;
15071;SDS011;7635;56.696;13.002;2022-07-15T12:55:16;2.20;;;1.30;;
15071;SDS011;7635;56.696;13.002;2022-07-15T12:57:44;3.03;;;0.98;;
15071;SDS011;7635;56.696;13.002;2022-07-15T13:00:14;3.88;;;1.25;;
15071;SDS011;7635;56.696;13.002;2022-07-15T13:02:54;0.80;;;0.80;;
15071;SDS011;7635;56.696;13.002;2022-07-15T13:05:26;2.85;;;1.27;;
15071;SDS011;7635;56.696;13.002;2022-07-15T13:07:55;1.48;;;0.90;;
15071;SDS011;7635;56.696;13.002;2022-07-15T13:10:22;1.70;;;0.93;;
15071;SDS011;7635;56.696;13.002;2022-07-15T13:12:49;0.93;;;0.80;;
15071;SDS011;7635;56.696;13.002;2022-07-15T13:15:18;1.75;;;0.90;;
15071;SDS011;7635;56.696;13.002;2022-07-15T13:17:44;1.25;;;0.90;;
15071;SDS011;7635;56.696;13.002;2022-07-15T13:20:11;3.53;;;1.00;;
15071;SDS011;7635;56.696;13.002;2022-07-15T13:22:39;1.77;;;1.10;;
15071;SDS011;7635;56.696;13.002;2022-07-15T13:25:06;0.98;;;0.98;;
15071;SDS011;7635;56.696;13.002;2022-07-15T13:27:34;1.05;;;0.88;;
15071;SDS011;7635;56.696;13.002;2022-07-15T13:30:01;1.33;;;0.88;;
15071;SDS011;7635;56.696;13.002;2022-07-15T13:32:30;2.70;;;1.10;;
15071;SDS011;7635;56.696;13.002;2022-07-15T13:34:57;1.45;;;1.08;;
15071;SDS011;7635;56.696;13.002;2022-07-15T13:37:24;2.08;;;1.33;;
15071;SDS011;7635;56.696;13.002;2022-07-15T13:39:50;1.02;;;1.00;;
15071;SDS011;7635;56.696;13.002;2022-07-15T13:42:17;4.82;;;1.20;;
15071;SDS011;7635;56.696;13.002;2022-07-15T13:44:44;2.97;;;0.95;;
15071;SDS011;7635;56.696;13.002;2022-07-15T13:47:11;2.92;;;1.23;;
15071;SDS011;7635;56.696;13.002;2022-07-15T13:49:39;2.72;;;1.02;;
15071;SDS011;7635;56.696;13.002;2022-07-15T13:52:23;1.10;;;1.00;;
15071;SDS011;7635;56.696;13.002;2022-07-15T13:54:50;2.10;;;1.10;;
15071;SDS011;7635;56.696;13.002;2022-07-15T13:57:17;0.98;;;0.90;;
15071;SDS011;7635;56.696;13.002;2022-07-15T13:59:43;1.10;;;1.00;;
15071;SDS011;7635;56.696;13.002;2022-07-15T14:02:10;2.28;;;1.13;;
15071;SDS011;7635;56.696;13.002;2022-07-15T14:04:37;1.73;;;1.08;;
15071;SDS011;7635;56.696;13.002;2022-07-15T14:07:05;4.10;;;1.10;;
15071;SDS011;7635;56.696;13.002;2022-07-15T14:09:32;1.65;;;0.90;;
15071;SDS011;7635;56.696;13.002;2022-07-15T14:11:59;1.30;;;1.20;;
15071;SDS011;7635;56.696;13.002;2022-07-15T14:14:27;1.25;;;1.05;;
15071;SDS011;7635;56.696;13.002;2022-07-15T14:16:54;1.80;;;1.30;;
15071;SDS011;7635;56.696;13.002;2022-07-15T14:19:21;2.85;;;1.15;;
15071;SDS011;7635;56.696;13.002;2022-07-15T14:21:47;0.85;;;0.85;;
15071;SDS011;7635;56.696;13.002;2022-07-15T14:24:15;2.50;;;0.95;;
15071;SDS011;7635;56.696;13.002;2022-07-15T14:26:43;2.55;;;0.98;;
15071;SDS011;7635;56.696;13.002;2022-07-15T14:29:10;1.92;;;1.10;;
15071;SDS011;7635;56.696;13.002;2022-07-15T14:31:36;4.25;;;1.10;;
15071;SDS011;7635;56.696;13.002;2022-07-15T14:34:03;1.75;;;1.00;;
15071;SDS011;7635;56.696;13.002;2022-07-15T14:36:31;5.05;;;1.10;;
15071;SDS011;7635;56.696;13.002;2022-07-15T14:38:58;2.97;;;0.93;;
15071;SDS011;7635;56.696;13.002;2022-07-15T14:41:26;3.35;;;1.15;;
15071;SDS011;7635;56.696;13.002;2022-07-15T14:43:52;2.38;;;1.00;;
15071;SDS011;7635;56.696;13.002;2022-07-15T14:46:19;4.95;;;1.63;;
15071;SDS011;7635;56.696;13.002;2022-07-15T14:48:46;5.00;;;1.40;;
15071;SDS011;7635;56.696;13.002;2022-07-15T14:51:13;1.13;;;1.02;;
15071;SDS011;7635;56.696;13.002;2022-07-15T14:53:40;1.88;;;1.20;;
15071;SDS011;7635;56.696;13.002;2022-07-15T14:56:06;1.83;;;1.17;;
15071;SDS011;7635;56.696;13.002;2022-07-15T14:58:35;6.10;;;1.15;;
15071;SDS011;7635;56.696;13.002;2022-07-15T15:01:01;6.05;;;1.00;;
15071;SDS011;7635;56.696;13.002;2022-07-15T15:03:28;1.55;;;1.10;;
15071;SDS011;7635;56.696;13.002;2022-07-15T15:05:55;1.23;;;1.05;;
15071;SDS011;7635;56.696;13.002;2022-07-15T15:08:22;4.50;;;1.35;;
15071;SDS011;7635;56.696;13.002;2022-07-15T15:10:50;0.90;;;0.90;;
15071;SDS011;7635;56.696;13.002;2022-07-15T15:13:16;2.45;;;1.20;;